createdAt,value
2023-04-11T00:00:44.854Z,423.00
2023-04-11T00:01:44.946Z,426.00
2023-04-11T00:02:45.146Z,428.00
2023-04-11T00:03:45.081Z,429.00
2023-04-11T00:04:45.211Z,426.00
2023-04-11T00:05:45.123Z,426.00
2023-04-11T00:06:45.169Z,428.00
2023-04-11T00:07:46.083Z,426.00
2023-04-11T00:08:45.279Z,427.00
2023-04-11T00:09:45.346Z,428.00
2023-04-11T00:10:45.764Z,429.00
2023-04-11T00:11:45.420Z,431.00
2023-04-11T00:12:45.485Z,432.00
2023-04-11T00:13:45.542Z,432.00
2023-04-11T00:14:45.671Z,432.00
2023-04-11T00:15:45.653Z,433.00
2023-04-11T00:16:45.744Z,433.00
2023-04-11T00:17:45.884Z,432.00
2023-04-11T00:18:45.801Z,429.00
2023-04-11T00:19:45.890Z,428.00
2023-04-11T00:20:45.905Z,428.00
2023-04-11T00:21:45.993Z,433.00
2023-04-11T00:22:46.034Z,432.00
2023-04-11T00:23:46.085Z,429.00
2023-04-11T00:24:46.112Z,427.00
2023-04-11T00:25:46.136Z,425.00
2023-04-11T00:26:46.223Z,428.00
2023-04-11T00:27:46.255Z,429.00
2023-04-11T00:28:46.306Z,429.00
2023-04-11T00:29:46.369Z,431.00
2023-04-11T00:30:46.438Z,433.00
2023-04-11T00:31:46.481Z,433.00
2023-04-11T00:32:46.618Z,432.00
2023-04-11T00:33:46.585Z,433.00
2023-04-11T00:34:46.630Z,432.00
2023-04-11T00:35:46.733Z,432.00
2023-04-11T00:36:46.766Z,431.00
2023-04-11T00:37:46.749Z,430.00
2023-04-11T00:38:46.807Z,429.00
2023-04-11T00:39:46.861Z,431.00
2023-04-11T00:40:46.903Z,431.00
2023-04-11T00:41:46.993Z,433.00
2023-04-11T00:42:47.011Z,435.00
2023-04-11T00:43:47.088Z,435.00
2023-04-11T00:44:47.163Z,438.00
2023-04-11T00:45:47.240Z,435.00
2023-04-11T00:46:47.249Z,432.00
2023-04-11T00:47:47.262Z,431.00
2023-04-11T00:48:47.342Z,428.00
2023-04-11T00:49:47.385Z,428.00
2023-04-11T00:50:47.441Z,432.00
2023-04-11T00:51:47.515Z,430.00
2023-04-11T00:52:47.542Z,429.00
2023-04-11T00:53:47.604Z,428.00
2023-04-11T00:54:47.670Z,427.00
2023-04-11T00:55:47.725Z,428.00
2023-04-11T00:56:47.793Z,431.00
2023-04-11T00:57:47.859Z,434.00
2023-04-11T00:58:47.874Z,436.00
2023-04-11T00:59:47.950Z,436.00
2023-04-11T01:00:48.063Z,436.00
2023-04-11T01:01:48.133Z,436.00
2023-04-11T01:02:48.195Z,432.00
2023-04-11T01:03:48.319Z,430.00
2023-04-11T01:04:48.220Z,428.00
2023-04-11T01:05:48.253Z,428.00
2023-04-11T01:06:48.330Z,427.00
2023-04-11T01:07:48.417Z,426.00
2023-04-11T01:08:48.423Z,425.00
2023-04-11T01:09:48.496Z,427.00
2023-04-11T01:10:48.549Z,430.00
2023-04-11T01:11:48.590Z,429.00
2023-04-11T01:12:48.657Z,428.00
2023-04-11T01:13:48.711Z,427.00
2023-04-11T01:14:48.782Z,428.00
2023-04-11T01:15:48.848Z,430.00
2023-04-11T01:16:48.891Z,430.00
2023-04-11T01:17:48.978Z,431.00
2023-04-11T01:18:48.999Z,431.00
2023-04-11T01:19:49.046Z,431.00
2023-04-11T01:20:49.124Z,430.00
2023-04-11T01:21:49.158Z,435.00
2023-04-11T01:22:49.223Z,434.00
2023-04-11T01:23:49.286Z,435.00
2023-04-11T01:24:49.315Z,433.00
2023-04-11T01:25:49.376Z,433.00
2023-04-11T01:26:49.429Z,433.00
2023-04-11T01:27:49.460Z,434.00
2023-04-11T01:28:49.498Z,434.00
2023-04-11T01:29:49.597Z,433.00
2023-04-11T01:30:49.629Z,431.00
2023-04-11T01:31:49.675Z,432.00
2023-04-11T01:32:49.748Z,429.00
2023-04-11T01:33:49.791Z,430.00
2023-04-11T01:34:49.839Z,433.00
2023-04-11T01:35:49.946Z,434.00
2023-04-11T01:36:49.954Z,434.00
2023-04-11T01:37:49.984Z,433.00
2023-04-11T01:38:50.070Z,431.00
2023-04-11T01:39:50.112Z,432.00
2023-04-11T01:40:50.164Z,432.00
2023-04-11T01:41:50.204Z,433.00
2023-04-11T01:42:50.251Z,432.00
2023-04-11T01:43:50.355Z,434.00
2023-04-11T01:44:50.343Z,437.00
2023-04-11T01:45:50.421Z,434.00
2023-04-11T01:46:50.472Z,434.00
2023-04-11T01:47:51.071Z,435.00
2023-04-11T01:48:50.689Z,432.00
2023-04-11T01:49:50.623Z,433.00
2023-04-11T01:50:50.707Z,435.00
2023-04-11T01:51:50.747Z,435.00
2023-04-11T01:52:50.783Z,434.00
2023-04-11T01:53:50.878Z,433.00
2023-04-11T01:54:50.859Z,432.00
2023-04-11T01:55:50.965Z,434.00
2023-04-11T01:56:50.986Z,434.00
2023-04-11T01:57:51.054Z,434.00
2023-04-11T01:58:51.086Z,433.00
2023-04-11T01:59:51.122Z,431.00
2023-04-11T02:00:51.179Z,429.00
2023-04-11T02:01:51.282Z,425.00
2023-04-11T02:02:51.413Z,424.00
2023-04-11T02:03:51.417Z,423.00
2023-04-11T02:04:51.426Z,423.00
2023-04-11T02:05:51.472Z,426.00
2023-04-11T02:06:51.523Z,427.00
2023-04-11T02:07:51.538Z,429.00
2023-04-11T02:08:51.568Z,429.00
2023-04-11T02:09:51.620Z,431.00
2023-04-11T02:10:51.656Z,429.00
2023-04-11T02:11:51.717Z,432.00
2023-04-11T02:12:51.779Z,433.00
2023-04-11T02:13:51.801Z,433.00
2023-04-11T02:14:51.878Z,435.00
2023-04-11T02:15:51.921Z,436.00
2023-04-11T02:16:51.930Z,438.00
2023-04-11T02:17:52.117Z,438.00
2023-04-11T02:18:52.032Z,437.00
2023-04-11T02:19:52.122Z,437.00
2023-04-11T02:20:52.135Z,438.00
2023-04-11T02:21:52.202Z,436.00
2023-04-11T02:22:52.229Z,433.00
2023-04-11T02:23:52.269Z,433.00
2023-04-11T02:24:52.341Z,432.00
2023-04-11T02:25:52.372Z,432.00
2023-04-11T02:26:52.461Z,434.00
2023-04-11T02:27:52.520Z,434.00
2023-04-11T02:28:52.651Z,434.00
2023-04-11T02:29:52.614Z,436.00
2023-04-11T02:30:52.711Z,438.00
2023-04-11T02:31:52.786Z,439.00
2023-04-11T02:32:52.932Z,441.00
2023-04-11T02:33:52.845Z,443.00
2023-04-11T02:34:52.882Z,443.00
2023-04-11T02:35:52.998Z,443.00
2023-04-11T02:36:53.010Z,442.00
2023-04-11T02:37:53.019Z,442.00
2023-04-11T02:38:53.103Z,444.00
2023-04-11T02:39:53.135Z,443.00
2023-04-11T02:40:53.229Z,444.00
2023-04-11T02:41:53.311Z,443.00
2023-04-11T02:42:53.341Z,442.00
2023-04-11T02:43:53.382Z,442.00
2023-04-11T02:44:53.401Z,443.00
2023-04-11T02:45:59.220Z,444.00
2023-04-11T02:46:54.527Z,445.00
2023-04-11T02:47:53.544Z,442.00
2023-04-11T02:48:53.556Z,441.00
2023-04-11T02:49:53.456Z,443.00
2023-04-11T02:50:53.445Z,441.00
2023-04-11T02:51:53.486Z,442.00
2023-04-11T02:52:53.490Z,443.00
2023-04-11T02:53:53.526Z,442.00
2023-04-11T02:54:53.497Z,443.00
2023-04-11T02:55:53.484Z,443.00
2023-04-11T02:56:53.505Z,444.00
2023-04-11T02:57:53.512Z,446.00
2023-04-11T02:58:53.696Z,445.00
2023-04-11T02:59:53.658Z,443.00
2023-04-11T03:00:53.690Z,443.00
2023-04-11T03:01:53.825Z,443.00
2023-04-11T03:02:53.959Z,441.00
2023-04-11T03:03:53.994Z,441.00
2023-04-11T03:04:53.930Z,441.00
2023-04-11T03:05:53.990Z,440.00
2023-04-11T03:06:54.074Z,441.00
2023-04-11T03:07:54.109Z,441.00
2023-04-11T03:08:54.612Z,442.00
2023-04-11T03:09:54.213Z,444.00
2023-04-11T03:10:54.245Z,441.00
2023-04-11T03:11:54.353Z,441.00
2023-04-11T03:12:54.349Z,442.00
2023-04-11T03:13:54.399Z,443.00
2023-04-11T03:14:54.474Z,444.00
2023-04-11T03:15:54.604Z,444.00
2023-04-11T03:16:54.633Z,442.00
2023-04-11T03:17:54.725Z,443.00
2023-04-11T03:18:54.890Z,443.00
2023-04-11T03:19:54.752Z,443.00
2023-04-11T03:20:54.817Z,441.00
2023-04-11T03:21:54.899Z,442.00
2023-04-11T03:22:54.959Z,443.00
2023-04-11T03:23:55.022Z,443.00
2023-04-11T03:24:55.099Z,446.00
2023-04-11T03:25:55.129Z,448.00
2023-04-11T03:26:55.206Z,448.00
2023-04-11T03:27:55.254Z,446.00
2023-04-11T03:28:55.491Z,445.00
2023-04-11T03:29:55.395Z,447.00
2023-04-11T03:30:56.182Z,446.00
2023-04-11T03:31:55.485Z,445.00
2023-04-11T03:32:55.601Z,444.00
2023-04-11T03:33:55.593Z,444.00
2023-04-11T03:34:55.697Z,443.00
2023-04-11T03:35:55.781Z,445.00
2023-04-11T03:36:55.854Z,445.00
2023-04-11T03:37:55.868Z,448.00
2023-04-11T03:38:56.108Z,449.00
2023-04-11T03:39:55.984Z,451.00
2023-04-11T03:40:56.032Z,450.00
2023-04-11T03:41:56.087Z,449.00
2023-04-11T03:42:56.144Z,448.00
2023-04-11T03:43:56.202Z,446.00
2023-04-11T03:44:56.280Z,447.00
2023-04-11T03:45:56.312Z,448.00
2023-04-11T03:46:56.500Z,447.00
2023-04-11T03:47:56.545Z,446.00
2023-04-11T03:48:56.685Z,447.00
2023-04-11T03:49:56.607Z,448.00
2023-04-11T03:50:56.668Z,448.00
2023-04-11T03:51:56.691Z,449.00
2023-04-11T03:52:56.772Z,448.00
2023-04-11T03:53:56.802Z,448.00
2023-04-11T03:54:56.880Z,448.00
2023-04-11T03:55:56.918Z,450.00
2023-04-11T03:56:56.985Z,449.00
2023-04-11T03:57:57.001Z,447.00
2023-04-11T03:58:57.269Z,443.00
2023-04-11T03:59:57.131Z,443.00
2023-04-11T04:00:57.186Z,442.00
2023-04-11T04:01:57.317Z,442.00
2023-04-11T04:02:57.446Z,441.00
2023-04-11T04:03:57.784Z,440.00
2023-04-11T04:04:57.441Z,441.00
2023-04-11T04:05:57.463Z,440.00
2023-04-11T04:06:57.533Z,441.00
2023-04-11T04:07:57.599Z,441.00
2023-04-11T04:08:57.637Z,440.00
2023-04-11T04:09:57.723Z,439.00
2023-04-11T04:10:57.784Z,439.00
2023-04-11T04:11:57.819Z,440.00
2023-04-11T04:12:57.852Z,442.00
2023-04-11T04:13:58.097Z,443.00
2023-04-11T04:14:58.014Z,445.00
2023-04-11T04:15:58.066Z,444.00
2023-04-11T04:16:58.155Z,442.00
2023-04-11T04:17:58.153Z,443.00
2023-04-11T04:18:58.222Z,442.00
2023-04-11T04:19:58.254Z,445.00
2023-04-11T04:20:58.305Z,443.00
2023-04-11T04:21:58.389Z,442.00
2023-04-11T04:22:58.435Z,444.00
2023-04-11T04:23:58.573Z,444.00
2023-04-11T04:24:58.543Z,445.00
2023-04-11T04:25:58.571Z,445.00
2023-04-11T04:26:58.617Z,447.00
2023-04-11T04:27:58.694Z,447.00
2023-04-11T04:28:58.764Z,447.00
2023-04-11T04:30:01.714Z,446.00
2023-04-11T04:30:59.818Z,445.00
2023-04-11T04:31:58.878Z,446.00
2023-04-11T04:32:58.985Z,445.00
2023-04-11T04:33:58.805Z,446.00
2023-04-11T04:34:58.907Z,444.00
2023-04-11T04:35:58.845Z,443.00
2023-04-11T04:36:58.840Z,443.00
2023-04-11T04:37:58.817Z,445.00
2023-04-11T04:38:58.851Z,442.00
2023-04-11T04:39:58.868Z,441.00
2023-04-11T04:40:58.901Z,439.00
2023-04-11T04:41:58.952Z,440.00
2023-04-11T04:42:59.031Z,439.00
2023-04-11T04:43:59.086Z,439.00
2023-04-11T04:44:59.123Z,440.00
2023-04-11T04:45:59.190Z,436.00
2023-04-11T04:46:59.242Z,435.00
2023-04-11T04:47:59.338Z,436.00
2023-04-11T04:49:01.692Z,434.00
2023-04-11T04:49:59.311Z,436.00
2023-04-11T04:50:59.344Z,437.00
2023-04-11T04:51:59.352Z,438.00
2023-04-11T04:52:59.332Z,440.00
2023-04-11T04:53:59.337Z,441.00
2023-04-11T04:54:59.340Z,443.00
2023-04-11T04:55:59.347Z,445.00
2023-04-11T04:56:59.364Z,446.00
2023-04-11T04:57:59.355Z,445.00
2023-04-11T04:58:59.355Z,446.00
2023-04-11T04:59:59.409Z,449.00
2023-04-11T05:01:07.204Z,448.00
2023-04-11T05:01:59.458Z,447.00
2023-04-11T05:02:59.495Z,445.00
2023-04-11T05:04:00.473Z,445.00
2023-04-11T05:04:59.431Z,444.00
2023-04-11T05:05:59.428Z,448.00
2023-04-11T05:06:59.457Z,447.00
2023-04-11T05:07:59.477Z,447.00
2023-04-11T05:08:59.454Z,448.00
2023-04-11T05:09:59.467Z,447.00
2023-04-11T05:10:59.485Z,446.00
2023-04-11T05:11:59.493Z,446.00
2023-04-11T05:12:59.486Z,446.00
2023-04-11T05:13:59.538Z,444.00
2023-04-11T05:14:59.503Z,445.00
2023-04-11T05:15:59.570Z,447.00
2023-04-11T05:16:59.720Z,447.00
2023-04-11T05:17:59.698Z,447.00
2023-04-11T05:18:59.735Z,448.00
2023-04-11T05:19:59.814Z,448.00
2023-04-11T05:20:59.846Z,447.00
2023-04-11T05:21:59.904Z,447.00
2023-04-11T05:22:59.967Z,448.00
2023-04-11T05:24:00.040Z,447.00
2023-04-11T05:25:00.107Z,447.00
2023-04-11T05:26:00.145Z,446.00
2023-04-11T05:27:00.421Z,446.00
2023-04-11T05:28:00.203Z,445.00
2023-04-11T05:29:00.237Z,447.00
2023-04-11T05:30:00.321Z,449.00
2023-04-11T05:31:00.363Z,450.00
2023-04-11T05:32:00.707Z,453.00
2023-04-11T05:33:00.500Z,457.00
2023-04-11T05:34:00.488Z,465.00
2023-04-11T05:35:00.565Z,472.00
2023-04-11T05:36:00.630Z,482.00
2023-04-11T05:37:00.747Z,507.00
2023-04-11T05:38:00.730Z,527.00
2023-04-11T05:39:00.796Z,530.00
2023-04-11T05:40:00.877Z,534.00
2023-04-11T05:41:00.999Z,590.00
2023-04-11T05:42:01.445Z,600.00
2023-04-11T05:43:01.048Z,641.00
2023-04-11T05:44:01.046Z,634.00
2023-04-11T05:45:01.150Z,643.00
2023-04-11T05:46:08.242Z,681.00
2023-04-11T05:47:01.198Z,689.00
2023-04-11T05:48:01.291Z,693.00
2023-04-11T05:49:01.240Z,706.00
2023-04-11T05:50:01.213Z,712.00
2023-04-11T05:51:01.233Z,713.00
2023-04-11T05:52:01.259Z,716.00
2023-04-11T05:53:01.271Z,716.00
2023-04-11T05:54:01.297Z,718.00
2023-04-11T05:55:01.256Z,716.00
2023-04-11T05:56:01.465Z,723.00
2023-04-11T05:57:01.269Z,707.00
2023-04-11T05:58:01.759Z,694.00
2023-04-11T05:59:01.304Z,686.00
2023-04-11T06:00:01.308Z,687.00
2023-04-11T06:01:01.313Z,683.00
2023-04-11T06:02:01.364Z,677.00
2023-04-11T06:03:01.445Z,672.00
2023-04-11T06:04:01.674Z,671.00
2023-04-11T06:05:01.385Z,674.00
2023-04-11T06:06:01.406Z,675.00
2023-04-11T06:07:01.335Z,663.00
2023-04-11T06:08:01.354Z,659.00
2023-04-11T06:09:01.314Z,663.00
2023-04-11T06:10:01.372Z,664.00
2023-04-11T06:11:01.367Z,656.00
2023-04-11T06:12:01.386Z,649.00
2023-04-11T06:13:01.353Z,646.00
2023-04-11T06:14:01.417Z,644.00
2023-04-11T06:15:01.457Z,644.00
2023-04-11T06:16:01.548Z,638.00
2023-04-11T06:17:01.588Z,632.00
2023-04-11T06:18:01.731Z,628.00
2023-04-11T06:19:01.689Z,629.00
2023-04-11T06:20:03.488Z,629.00
2023-04-11T06:21:01.768Z,628.00
2023-04-11T06:22:01.752Z,620.00
2023-04-11T06:23:01.720Z,613.00
2023-04-11T06:24:01.721Z,610.00
2023-04-11T06:25:01.775Z,608.00
2023-04-11T06:26:01.759Z,603.00
2023-04-11T06:27:01.744Z,647.00
2023-04-11T06:28:01.766Z,651.00
2023-04-11T06:29:01.945Z,699.00
2023-04-11T06:30:01.779Z,700.00
2023-04-11T06:31:01.862Z,704.00
2023-04-11T06:32:01.789Z,715.00
2023-04-11T06:33:01.804Z,778.00
2023-04-11T06:34:01.764Z,792.00
2023-04-11T06:35:01.752Z,797.00
2023-04-11T06:36:02.349Z,808.00
2023-04-11T06:37:01.828Z,816.00
2023-04-11T06:38:01.829Z,875.00
2023-04-11T06:39:01.838Z,897.00
2023-04-11T06:40:01.790Z,880.00
2023-04-11T06:41:01.787Z,815.00
2023-04-11T06:42:01.787Z,797.00
2023-04-11T06:43:02.277Z,709.00
2023-04-11T06:44:01.878Z,681.00
2023-04-11T06:45:01.896Z,652.00
2023-04-11T06:46:01.857Z,629.00
2023-04-11T06:47:01.952Z,623.00
2023-04-11T06:48:02.395Z,627.00
2023-04-11T06:49:01.865Z,644.00
2023-04-11T06:50:02.055Z,702.00
2023-04-11T06:51:01.990Z,703.00
2023-04-11T06:52:02.034Z,700.00
2023-04-11T06:53:02.073Z,732.00
2023-04-11T06:54:02.148Z,740.00
2023-04-11T06:55:02.142Z,744.00
2023-04-11T06:56:02.229Z,747.00
2023-04-11T06:57:02.325Z,736.00
2023-04-11T06:58:02.783Z,735.00
2023-04-11T06:59:02.390Z,753.00
2023-04-11T07:00:02.448Z,767.00
2023-04-11T07:01:02.455Z,765.00
2023-04-11T07:02:02.641Z,727.00
2023-04-11T07:03:02.802Z,732.00
2023-04-11T07:04:02.846Z,729.00
2023-04-11T07:05:02.776Z,804.00
2023-04-11T07:06:02.746Z,754.00
2023-04-11T07:07:02.783Z,799.00
2023-04-11T07:08:02.901Z,859.00
2023-04-11T07:09:02.912Z,747.00
2023-04-11T07:10:03.009Z,674.00
2023-04-11T07:11:02.996Z,640.00
2023-04-11T07:12:03.063Z,643.00
2023-04-11T07:13:03.094Z,648.00
2023-04-11T07:14:03.132Z,668.00
2023-04-11T07:15:03.220Z,713.00
2023-04-11T07:16:03.284Z,723.00
2023-04-11T07:17:03.299Z,727.00
2023-04-11T07:18:03.387Z,753.00
2023-04-11T07:19:03.502Z,761.00
2023-04-11T07:20:03.487Z,758.00
2023-04-11T07:21:03.506Z,760.00
2023-04-11T07:22:03.584Z,771.00
2023-04-11T07:23:03.776Z,789.00
2023-04-11T07:24:03.680Z,788.00
2023-04-11T07:25:03.823Z,788.00
2023-04-11T07:26:03.824Z,827.00
2023-04-11T07:27:03.842Z,823.00
2023-04-11T07:28:03.838Z,844.00
2023-04-11T07:29:03.940Z,878.00
2023-04-11T07:30:03.976Z,895.00
2023-04-11T07:31:04.141Z,926.00
2023-04-11T07:32:04.308Z,890.00
2023-04-11T07:33:04.336Z,753.00
2023-04-11T07:34:04.163Z,732.00
2023-04-11T07:35:04.218Z,715.00
2023-04-11T07:36:04.259Z,710.00
2023-04-11T07:37:04.313Z,695.00
2023-04-11T07:38:04.337Z,686.00
2023-04-11T07:39:04.425Z,685.00
2023-04-11T07:40:04.658Z,686.00
2023-04-11T07:41:04.580Z,688.00
2023-04-11T07:42:04.529Z,687.00
2023-04-11T07:43:04.828Z,695.00
2023-04-11T07:44:04.629Z,690.00
2023-04-11T07:45:04.664Z,687.00
2023-04-11T07:46:04.773Z,684.00
2023-04-11T07:47:04.789Z,685.00
2023-04-11T07:48:04.931Z,688.00
2023-04-11T07:49:04.889Z,687.00
2023-04-11T07:50:04.919Z,682.00
2023-04-11T07:51:05.019Z,680.00
2023-04-11T07:52:05.049Z,683.00
2023-04-11T07:53:05.142Z,719.00
2023-04-11T07:54:05.141Z,706.00
2023-04-11T07:55:05.245Z,813.00
2023-04-11T07:56:05.262Z,844.00
2023-04-11T07:57:05.303Z,842.00
2023-04-11T07:58:05.402Z,767.00
2023-04-11T07:59:05.463Z,848.00
2023-04-11T08:00:05.468Z,862.00
2023-04-11T08:01:05.539Z,865.00
2023-04-11T08:02:05.678Z,871.00
2023-04-11T08:03:05.886Z,841.00
2023-04-11T08:04:05.991Z,864.00
2023-04-11T08:05:05.882Z,882.00
2023-04-11T08:06:05.768Z,885.00
2023-04-11T08:07:05.875Z,893.00
2023-04-11T08:08:05.871Z,894.00
2023-04-11T08:09:05.881Z,894.00
2023-04-11T08:10:05.966Z,898.00
2023-04-11T08:11:05.978Z,899.00
2023-04-11T08:12:06.090Z,898.00
2023-04-11T08:13:06.096Z,899.00
2023-04-11T08:14:06.115Z,893.00
2023-04-11T08:15:06.153Z,897.00
2023-04-11T08:16:06.287Z,767.00
2023-04-11T08:17:14.584Z,847.00
2023-04-11T08:18:07.281Z,836.00
2023-04-11T08:19:06.261Z,910.00
2023-04-11T08:20:06.259Z,875.00
2023-04-11T08:21:06.235Z,902.00
2023-04-11T08:22:06.234Z,900.00
2023-04-11T08:23:06.301Z,891.00
2023-04-11T08:24:06.215Z,914.00
2023-04-11T08:25:06.249Z,925.00
2023-04-11T08:26:06.320Z,935.00
2023-04-11T08:27:06.268Z,853.00
2023-04-11T08:28:06.298Z,825.00
2023-04-11T08:29:06.291Z,874.00
2023-04-11T08:30:06.333Z,915.00
2023-04-11T08:31:06.394Z,812.00
2023-04-11T08:32:06.418Z,800.00
2023-04-11T08:33:06.581Z,764.00
2023-04-11T08:34:07.487Z,700.00
2023-04-11T08:35:06.572Z,692.00
2023-04-11T08:36:06.670Z,674.00
2023-04-11T08:37:06.711Z,638.00
2023-04-11T08:38:06.777Z,632.00
2023-04-11T08:39:06.938Z,630.00
2023-04-11T08:40:07.110Z,622.00
2023-04-11T08:41:06.942Z,615.00
2023-04-11T08:42:07.008Z,609.00
2023-04-11T08:43:07.094Z,603.00
2023-04-11T08:44:07.107Z,595.00
2023-04-11T08:45:07.217Z,588.00
2023-04-11T08:46:07.298Z,573.00
2023-04-11T08:47:07.287Z,565.00
2023-04-11T08:48:07.932Z,558.00
2023-04-11T08:49:07.390Z,551.00
2023-04-11T08:50:07.513Z,545.00
2023-04-11T08:51:07.511Z,543.00
2023-04-11T08:52:07.601Z,535.00
2023-04-11T08:53:07.599Z,535.00
2023-04-11T08:54:07.711Z,634.00
2023-04-11T08:55:07.697Z,648.00
2023-04-11T08:56:07.714Z,626.00
2023-04-11T08:57:07.711Z,582.00
2023-04-11T08:58:07.756Z,598.00
2023-04-11T08:59:07.812Z,678.00
2023-04-11T09:00:08.734Z,626.00
2023-04-11T09:01:07.946Z,609.00
2023-04-11T09:02:08.007Z,603.00
2023-04-11T09:03:08.111Z,601.00
2023-04-11T09:04:07.949Z,591.00
2023-04-11T09:05:08.040Z,576.00
2023-04-11T09:06:08.282Z,566.00
2023-04-11T09:07:08.079Z,567.00
2023-04-11T09:08:08.113Z,567.00
2023-04-11T09:09:08.233Z,564.00
2023-04-11T09:10:08.230Z,563.00
2023-04-11T09:11:08.252Z,566.00
2023-04-11T09:12:08.323Z,563.00
2023-04-11T09:13:09.357Z,557.00
2023-04-11T09:14:08.386Z,557.00
2023-04-11T09:15:08.436Z,558.00
2023-04-11T09:16:08.534Z,559.00
2023-04-11T09:17:08.566Z,554.00
2023-04-11T09:18:08.591Z,552.00
2023-04-11T09:19:08.566Z,561.00
2023-04-11T09:20:08.640Z,612.00
2023-04-11T09:21:08.676Z,588.00
2023-04-11T09:22:08.718Z,578.00
2023-04-11T09:23:08.787Z,579.00
2023-04-11T09:24:08.813Z,579.00
2023-04-11T09:25:08.839Z,580.00
2023-04-11T09:26:08.868Z,578.00
2023-04-11T09:27:08.951Z,581.00
2023-04-11T09:28:09.017Z,583.00
2023-04-11T09:29:09.369Z,586.00
2023-04-11T09:30:09.053Z,587.00
2023-04-11T09:31:09.107Z,593.00
2023-04-11T09:32:09.107Z,600.00
2023-04-11T09:33:09.252Z,603.00
2023-04-11T09:34:09.235Z,618.00
2023-04-11T09:35:09.231Z,635.00
2023-04-11T09:36:09.297Z,633.00
2023-04-11T09:37:09.342Z,630.00
2023-04-11T09:38:09.350Z,753.00
2023-04-11T09:39:09.421Z,715.00
2023-04-11T09:40:09.429Z,736.00
2023-04-11T09:41:09.474Z,739.00
2023-04-11T09:42:09.549Z,856.00
2023-04-11T09:43:09.618Z,882.00
2023-04-11T09:44:09.680Z,902.00
2023-04-11T09:45:09.682Z,966.00
2023-04-11T09:46:09.836Z,1007.00
2023-04-11T09:47:09.687Z,995.00
2023-04-11T09:48:09.826Z,981.00
2023-04-11T09:49:12.001Z,926.00
2023-04-11T09:50:09.822Z,834.00
2023-04-11T09:52:09.880Z,840.00
2023-04-11T09:53:09.935Z,944.00
2023-04-11T09:54:10.355Z,963.00
2023-04-11T09:55:10.057Z,1024.00
2023-04-11T09:56:10.155Z,946.00
2023-04-11T09:57:10.282Z,1028.00
2023-04-11T09:58:10.175Z,1043.00
2023-04-11T09:59:10.284Z,1056.00
2023-04-11T10:00:10.338Z,1025.00
2023-04-11T10:01:10.411Z,1033.00
2023-04-11T10:02:10.528Z,1042.00
2023-04-11T10:03:10.589Z,1041.00
2023-04-11T10:04:10.587Z,1044.00
2023-04-11T10:05:10.557Z,1050.00
2023-04-11T10:06:10.668Z,1056.00
2023-04-11T10:07:10.681Z,1057.00
2023-04-11T10:08:10.719Z,1057.00
2023-04-11T10:09:10.795Z,1056.00
2023-04-11T10:10:10.885Z,1049.00
2023-04-11T10:11:11.864Z,1055.00
2023-04-11T10:12:10.929Z,1054.00
2023-04-11T10:13:10.996Z,1049.00
2023-04-11T10:14:11.340Z,1044.00
2023-04-11T10:15:11.118Z,1041.00
2023-04-11T10:16:11.120Z,1047.00
2023-04-11T10:17:11.157Z,1037.00
2023-04-11T10:18:11.280Z,1043.00
2023-04-11T10:19:11.259Z,1048.00
2023-04-11T10:20:11.330Z,1044.00
2023-04-11T10:21:11.353Z,1010.00
2023-04-11T10:22:11.373Z,1031.00
2023-04-11T10:23:11.458Z,1037.00
2023-04-11T10:24:13.476Z,1041.00
2023-04-11T10:25:11.557Z,1030.00
2023-04-11T10:26:11.494Z,1044.00
2023-04-11T10:27:11.498Z,1042.00
2023-04-11T10:28:11.455Z,1053.00
2023-04-11T10:29:11.457Z,1054.00
2023-04-11T10:30:11.870Z,1062.00
2023-04-11T10:31:11.480Z,964.00
2023-04-11T10:32:11.472Z,927.00
2023-04-11T10:33:11.496Z,881.00
2023-04-11T10:34:11.488Z,962.00
2023-04-11T10:35:11.470Z,913.00
2023-04-11T10:36:11.712Z,975.00
2023-04-11T10:37:11.423Z,934.00
2023-04-11T10:38:11.454Z,934.00
2023-04-11T10:39:11.493Z,995.00
2023-04-11T10:40:11.440Z,991.00
2023-04-11T10:41:11.434Z,988.00
2023-04-11T10:42:11.441Z,986.00
2023-04-11T10:43:11.393Z,986.00
2023-04-11T10:44:11.409Z,981.00
2023-04-11T10:45:11.877Z,979.00
2023-04-11T10:46:11.386Z,996.00
2023-04-11T10:47:11.541Z,1043.00
2023-04-11T10:48:11.380Z,1041.00
2023-04-11T10:49:11.384Z,1048.00
2023-04-11T10:50:11.444Z,1047.00
2023-04-11T10:51:11.472Z,1039.00
2023-04-11T10:52:11.532Z,1032.00
2023-04-11T10:53:11.586Z,997.00
2023-04-11T10:54:11.626Z,1002.00
2023-04-11T10:55:11.648Z,998.00
2023-04-11T10:56:11.680Z,802.00
2023-04-11T10:57:11.725Z,803.00
2023-04-11T10:58:11.778Z,773.00
2023-04-11T10:59:11.893Z,751.00
2023-04-11T11:00:11.850Z,754.00
2023-04-11T11:01:21.185Z,761.00
2023-04-11T11:02:12.963Z,777.00
2023-04-11T11:03:12.054Z,800.00
2023-04-11T11:04:12.635Z,799.00
2023-04-11T11:05:12.018Z,822.00
2023-04-11T11:06:11.903Z,816.00
2023-04-11T11:07:11.927Z,834.00
2023-04-11T11:08:11.912Z,875.00
2023-04-11T11:09:11.919Z,884.00
2023-04-11T11:10:14.997Z,895.00
2023-04-11T11:11:11.940Z,905.00
2023-04-11T11:12:12.028Z,920.00
2023-04-11T11:13:11.924Z,938.00
2023-04-11T11:14:12.910Z,970.00
2023-04-11T11:15:12.387Z,983.00
2023-04-11T11:16:11.941Z,997.00
2023-04-11T11:17:11.992Z,1020.00
2023-04-11T11:18:11.864Z,1022.00
2023-04-11T11:19:11.918Z,1027.00
2023-04-11T11:20:11.894Z,1033.00
2023-04-11T11:21:17.058Z,1043.00
2023-04-11T11:22:12.916Z,1051.00
2023-04-11T11:23:11.867Z,1066.00
2023-04-11T11:24:11.873Z,1081.00
2023-04-11T11:25:11.896Z,1093.00
2023-04-11T11:26:11.881Z,1106.00
2023-04-11T11:27:11.811Z,1123.00
2023-04-11T11:28:11.841Z,1137.00
2023-04-11T11:29:11.836Z,1152.00
2023-04-11T11:30:11.904Z,1161.00
2023-04-11T11:31:11.972Z,1182.00
2023-04-11T11:32:11.877Z,1225.00
2023-04-11T11:33:11.894Z,1243.00
2023-04-11T11:34:23.152Z,1236.00
2023-04-11T11:35:12.891Z,1229.00
2023-04-11T11:36:11.752Z,1207.00
2023-04-11T11:37:11.751Z,1193.00
2023-04-11T11:38:11.762Z,1193.00
2023-04-11T11:39:11.739Z,1195.00
2023-04-11T11:40:11.769Z,1197.00
2023-04-11T11:41:11.752Z,1197.00
2023-04-11T11:42:11.786Z,1190.00
2023-04-11T11:43:11.718Z,1190.00
2023-04-11T11:44:11.750Z,1188.00
2023-04-11T11:45:11.728Z,1186.00
2023-04-11T11:46:11.757Z,1184.00
2023-04-11T11:47:11.748Z,1182.00
2023-04-11T11:48:11.706Z,1176.00
2023-04-11T11:49:11.667Z,1169.00
2023-04-11T11:50:11.894Z,1164.00
2023-04-11T11:51:11.782Z,1161.00
2023-04-11T11:52:11.726Z,1160.00
2023-04-11T11:53:11.743Z,1154.00
2023-04-11T11:54:11.776Z,1148.00
2023-04-11T11:55:11.833Z,1143.00
2023-04-11T11:56:11.824Z,1142.00
2023-04-11T11:57:11.892Z,1138.00
2023-04-11T11:58:11.895Z,1129.00
2023-04-11T11:59:11.973Z,1123.00
2023-04-11T12:00:12.040Z,1116.00
2023-04-11T12:02:12.122Z,1103.00
2023-04-11T12:03:12.244Z,1098.00
2023-04-11T12:04:12.300Z,1091.00
2023-04-11T12:05:12.434Z,1086.00
2023-04-11T12:06:12.258Z,1078.00
2023-04-11T12:07:12.346Z,1072.00
2023-04-11T12:08:12.327Z,1065.00
2023-04-11T12:09:12.391Z,1061.00
2023-04-11T12:10:12.444Z,1055.00
2023-04-11T12:11:12.470Z,1049.00
2023-04-11T12:12:12.514Z,1038.00
2023-04-11T12:13:12.525Z,1031.00
2023-04-11T12:14:12.547Z,1028.00
2023-04-11T12:15:12.569Z,1025.00
2023-04-11T12:16:12.721Z,1019.00
2023-04-11T12:17:12.644Z,1009.00
2023-04-11T12:18:12.707Z,1000.00
2023-04-11T12:19:12.689Z,989.00
2023-04-11T12:20:12.768Z,981.00
2023-04-11T12:21:12.776Z,978.00
2023-04-11T12:22:12.817Z,976.00
2023-04-11T12:23:12.893Z,973.00
2023-04-11T12:24:12.879Z,971.00
2023-04-11T12:25:12.906Z,966.00
2023-04-11T12:26:12.941Z,963.00
2023-04-11T12:27:13.002Z,957.00
2023-04-11T12:28:13.003Z,954.00